sensor_id;sensor_type;location;lat;lon;timestamp;P1;durP1;ratioP1;P2;durP2;ratioP2
65753;SDS011;69207;47.502;18.940;2023-09-19T00:00:46;16.05;;;5.78;;
65753;SDS011;69207;47.502;18.940;2023-09-19T00:01:50;14.73;;;6.00;;
65753;SDS011;69207;47.502;18.940;2023-09-19T00:02:56;14.05;;;6.32;;
65753;SDS011;69207;47.502;18.940;2023-09-19T00:04:02;11.90;;;5.47;;
65753;SDS011;69207;47.502;18.940;2023-09-19T00:05:06;8.02;;;5.37;;
65753;SDS011;69207;47.502;18.940;2023-09-19T00:06:12;9.50;;;5.50;;
65753;SDS011;69207;47.502;18.940;2023-09-19T00:07:18;12.68;;;5.60;;
65753;SDS011;69207;47.502;18.940;2023-09-19T00:08:21;10.70;;;5.65;;
65753;SDS011;69207;47.502;18.940;2023-09-19T00:09:27;9.35;;;5.40;;
65753;SDS011;69207;47.502;18.940;2023-09-19T00:10:30;12.63;;;6.25;;
65753;SDS011;69207;47.502;18.940;2023-09-19T00:11:37;10.52;;;5.28;;
65753;SDS011;69207;47.502;18.940;2023-09-19T00:12:42;14.63;;;6.05;;
65753;SDS011;69207;47.502;18.940;2023-09-19T00:13:49;12.60;;;6.22;;
65753;SDS011;69207;47.502;18.940;2023-09-19T00:14:53;12.07;;;5.72;;
65753;SDS011;69207;47.502;18.940;2023-09-19T00:15:56;13.48;;;5.95;;
65753;SDS011;69207;47.502;18.940;2023-09-19T00:17:02;14.55;;;6.05;;
65753;SDS011;69207;47.502;18.940;2023-09-19T00:18:11;9.38;;;6.18;;
65753;SDS011;69207;47.502;18.940;2023-09-19T00:19:14;13.95;;;6.15;;
65753;SDS011;69207;47.502;18.940;2023-09-19T00:20:19;8.57;;;5.68;;
65753;SDS011;69207;47.502;18.940;2023-09-19T00:21:24;8.25;;;5.80;;
65753;SDS011;69207;47.502;18.940;2023-09-19T00:22:27;13.05;;;6.07;;
65753;SDS011;69207;47.502;18.940;2023-09-19T00:23:31;13.13;;;6.18;;
65753;SDS011;69207;47.502;18.940;2023-09-19T00:24:36;13.48;;;6.25;;
65753;SDS011;69207;47.502;18.940;2023-09-19T00:25:40;15.52;;;5.93;;
65753;SDS011;69207;47.502;18.940;2023-09-19T00:26:44;10.45;;;6.35;;
65753;SDS011;69207;47.502;18.940;2023-09-19T00:27:49;9.73;;;5.78;;
65753;SDS011;69207;47.502;18.940;2023-09-19T00:28:54;8.35;;;5.68;;
65753;SDS011;69207;47.502;18.940;2023-09-19T00:29:57;12.70;;;5.68;;
65753;SDS011;69207;47.502;18.940;2023-09-19T00:31:01;14.93;;;6.07;;
65753;SDS011;69207;47.502;18.940;2023-09-19T00:32:06;15.90;;;5.82;;
65753;SDS011;69207;47.502;18.940;2023-09-19T00:33:11;14.23;;;6.40;;
65753;SDS011;69207;47.502;18.940;2023-09-19T00:34:19;15.18;;;6.50;;
65753;SDS011;69207;47.502;18.940;2023-09-19T00:35:23;13.68;;;5.82;;
65753;SDS011;69207;47.502;18.940;2023-09-19T00:36:26;13.15;;;6.07;;
65753;SDS011;69207;47.502;18.940;2023-09-19T00:37:29;10.45;;;6.32;;
65753;SDS011;69207;47.502;18.940;2023-09-19T00:38:35;11.32;;;6.18;;
65753;SDS011;69207;47.502;18.940;2023-09-19T00:39:38;10.32;;;5.80;;
65753;SDS011;69207;47.502;18.940;2023-09-19T00:40:44;13.60;;;6.00;;
65753;SDS011;69207;47.502;18.940;2023-09-19T00:41:48;12.75;;;5.93;;
65753;SDS011;69207;47.502;18.940;2023-09-19T00:42:51;18.58;;;6.65;;
65753;SDS011;69207;47.502;18.940;2023-09-19T00:43:55;14.60;;;6.15;;
65753;SDS011;69207;47.502;18.940;2023-09-19T00:44:59;15.48;;;6.45;;
65753;SDS011;69207;47.502;18.940;2023-09-19T00:46:06;10.45;;;6.35;;
65753;SDS011;69207;47.502;18.940;2023-09-19T00:47:10;12.63;;;6.55;;
65753;SDS011;69207;47.502;18.940;2023-09-19T00:48:22;11.38;;;7.07;;
65753;SDS011;69207;47.502;18.940;2023-09-19T00:49:27;9.02;;;6.62;;
65753;SDS011;69207;47.502;18.940;2023-09-19T00:50:31;13.18;;;6.87;;
65753;SDS011;69207;47.502;18.940;2023-09-19T00:51:34;12.63;;;7.12;;
65753;SDS011;69207;47.502;18.940;2023-09-19T00:52:38;10.02;;;6.60;;
65753;SDS011;69207;47.502;18.940;2023-09-19T00:53:42;9.73;;;6.35;;
65753;SDS011;69207;47.502;18.940;2023-09-19T00:54:49;14.18;;;7.18;;
65753;SDS011;69207;47.502;18.940;2023-09-19T00:55:53;19.00;;;6.62;;
65753;SDS011;69207;47.502;18.940;2023-09-19T00:56:56;14.70;;;7.10;;
65753;SDS011;69207;47.502;18.940;2023-09-19T00:57:59;18.02;;;7.35;;
65753;SDS011;69207;47.502;18.940;2023-09-19T00:59:03;15.32;;;6.75;;
65753;SDS011;69207;47.502;18.940;2023-09-19T01:00:07;14.35;;;6.55;;
65753;SDS011;69207;47.502;18.940;2023-09-19T01:01:14;14.18;;;7.22;;
65753;SDS011;69207;47.502;18.940;2023-09-19T01:02:18;11.70;;;6.87;;
65753;SDS011;69207;47.502;18.940;2023-09-19T01:03:22;19.67;;;7.43;;
65753;SDS011;69207;47.502;18.940;2023-09-19T01:04:26;14.90;;;7.32;;
65753;SDS011;69207;47.502;18.940;2023-09-19T01:05:31;16.02;;;6.53;;
65753;SDS011;69207;47.502;18.940;2023-09-19T01:06:34;13.20;;;6.78;;
65753;SDS011;69207;47.502;18.940;2023-09-19T01:07:39;27.58;;;7.82;;
65753;SDS011;69207;47.502;18.940;2023-09-19T01:08:43;14.90;;;7.82;;
65753;SDS011;69207;47.502;18.940;2023-09-19T01:09:46;14.20;;;7.50;;
65753;SDS011;69207;47.502;18.940;2023-09-19T01:10:55;11.50;;;7.03;;
65753;SDS011;69207;47.502;18.940;2023-09-19T01:12:05;12.40;;;7.32;;
65753;SDS011;69207;47.502;18.940;2023-09-19T01:14:54;13.68;;;7.32;;
65753;SDS011;69207;47.502;18.940;2023-09-19T01:16:06;11.50;;;6.80;;
65753;SDS011;69207;47.502;18.940;2023-09-19T01:17:27;11.82;;;7.60;;
65753;SDS011;69207;47.502;18.940;2023-09-19T01:19:53;13.60;;;7.70;;
65753;SDS011;69207;47.502;18.940;2023-09-19T01:28:34;12.82;;;7.43;;
65753;SDS011;69207;47.502;18.940;2023-09-19T01:30:08;15.23;;;7.60;;
65753;SDS011;69207;47.502;18.940;2023-09-19T01:31:21;12.70;;;7.65;;
65753;SDS011;69207;47.502;18.940;2023-09-19T01:32:26;13.00;;;7.10;;
65753;SDS011;69207;47.502;18.940;2023-09-19T01:35:02;11.55;;;7.30;;
65753;SDS011;69207;47.502;18.940;2023-09-19T01:36:08;16.70;;;8.32;;
65753;SDS011;69207;47.502;18.940;2023-09-19T01:37:12;17.33;;;7.97;;
65753;SDS011;69207;47.502;18.940;2023-09-19T01:38:23;13.50;;;7.78;;
65753;SDS011;69207;47.502;18.940;2023-09-19T01:39:26;9.50;;;7.07;;
65753;SDS011;69207;47.502;18.940;2023-09-19T01:40:29;13.10;;;7.47;;
65753;SDS011;69207;47.502;18.940;2023-09-19T01:41:36;15.52;;;8.20;;
65753;SDS011;69207;47.502;18.940;2023-09-19T01:44:11;12.35;;;7.93;;
65753;SDS011;69207;47.502;18.940;2023-09-19T01:47:34;20.48;;;8.30;;
65753;SDS011;69207;47.502;18.940;2023-09-19T01:48:46;14.55;;;8.40;;
65753;SDS011;69207;47.502;18.940;2023-09-19T01:50:01;13.60;;;7.43;;
65753;SDS011;69207;47.502;18.940;2023-09-19T01:51:14;12.77;;;7.72;;
65753;SDS011;69207;47.502;18.940;2023-09-19T01:52:25;14.85;;;8.52;;
65753;SDS011;69207;47.502;18.940;2023-09-19T01:53:33;10.85;;;8.23;;
65753;SDS011;69207;47.502;18.940;2023-09-19T01:54:43;17.12;;;8.35;;
65753;SDS011;69207;47.502;18.940;2023-09-19T01:55:51;13.45;;;8.10;;
65753;SDS011;69207;47.502;18.940;2023-09-19T01:57:00;17.27;;;8.52;;
65753;SDS011;69207;47.502;18.940;2023-09-19T01:59:25;11.52;;;8.27;;
65753;SDS011;69207;47.502;18.940;2023-09-19T02:00:35;14.80;;;7.68;;
65753;SDS011;69207;47.502;18.940;2023-09-19T02:01:40;13.45;;;8.65;;
65753;SDS011;69207;47.502;18.940;2023-09-19T02:02:47;16.12;;;7.90;;
65753;SDS011;69207;47.502;18.940;2023-09-19T02:03:52;14.75;;;8.15;;
65753;SDS011;69207;47.502;18.940;2023-09-19T02:04:56;12.18;;;8.00;;
65753;SDS011;69207;47.502;18.940;2023-09-19T02:06:00;17.35;;;8.60;;
65753;SDS011;69207;47.502;18.940;2023-09-19T02:07:03;12.55;;;8.18;;
65753;SDS011;69207;47.502;18.940;2023-09-19T02:08:08;15.23;;;8.40;;
65753;SDS011;69207;47.502;18.940;2023-09-19T02:09:11;11.30;;;8.55;;
65753;SDS011;69207;47.502;18.940;2023-09-19T02:10:15;13.52;;;8.23;;
65753;SDS011;69207;47.502;18.940;2023-09-19T02:11:21;14.43;;;8.15;;
65753;SDS011;69207;47.502;18.940;2023-09-19T02:12:24;15.98;;;8.57;;
65753;SDS011;69207;47.502;18.940;2023-09-19T02:13:27;12.30;;;8.65;;
65753;SDS011;69207;47.502;18.940;2023-09-19T02:14:30;15.93;;;8.75;;
65753;SDS011;69207;47.502;18.940;2023-09-19T02:15:35;14.43;;;8.57;;
65753;SDS011;69207;47.502;18.940;2023-09-19T02:16:39;14.20;;;8.52;;
65753;SDS011;69207;47.502;18.940;2023-09-19T02:17:43;16.73;;;8.20;;
65753;SDS011;69207;47.502;18.940;2023-09-19T02:18:49;14.65;;;8.32;;
65753;SDS011;69207;47.502;18.940;2023-09-19T02:19:54;14.32;;;9.13;;
65753;SDS011;69207;47.502;18.940;2023-09-19T02:21:01;14.45;;;8.80;;
65753;SDS011;69207;47.502;18.940;2023-09-19T02:22:06;15.93;;;8.77;;
65753;SDS011;69207;47.502;18.940;2023-09-19T02:23:10;11.32;;;8.05;;
65753;SDS011;69207;47.502;18.940;2023-09-19T02:24:14;14.63;;;8.77;;
65753;SDS011;69207;47.502;18.940;2023-09-19T02:25:17;18.95;;;9.10;;
65753;SDS011;69207;47.502;18.940;2023-09-19T02:26:22;13.02;;;7.93;;
65753;SDS011;69207;47.502;18.940;2023-09-19T02:27:26;14.77;;;8.60;;
65753;SDS011;69207;47.502;18.940;2023-09-19T02:28:29;14.82;;;8.15;;
65753;SDS011;69207;47.502;18.940;2023-09-19T02:29:35;13.88;;;8.15;;
65753;SDS011;69207;47.502;18.940;2023-09-19T02:30:38;18.73;;;8.95;;
65753;SDS011;69207;47.502;18.940;2023-09-19T02:31:41;14.93;;;8.05;;
65753;SDS011;69207;47.502;18.940;2023-09-19T02:32:44;15.32;;;9.20;;
65753;SDS011;69207;47.502;18.940;2023-09-19T02:33:48;13.13;;;8.40;;
65753;SDS011;69207;47.502;18.940;2023-09-19T02:34:51;12.65;;;8.50;;
65753;SDS011;69207;47.502;18.940;2023-09-19T02:35:55;17.37;;;9.43;;
65753;SDS011;69207;47.502;18.940;2023-09-19T02:37:07;16.02;;;8.50;;
65753;SDS011;69207;47.502;18.940;2023-09-19T02:38:16;15.38;;;9.35;;
65753;SDS011;69207;47.502;18.940;2023-09-19T02:39:24;15.38;;;9.10;;
65753;SDS011;69207;47.502;18.940;2023-09-19T02:40:27;19.00;;;8.63;;
65753;SDS011;69207;47.502;18.940;2023-09-19T02:41:31;16.55;;;8.80;;
65753;SDS011;69207;47.502;18.940;2023-09-19T02:42:35;15.02;;;8.90;;
65753;SDS011;69207;47.502;18.940;2023-09-19T02:43:38;16.77;;;9.05;;
65753;SDS011;69207;47.502;18.940;2023-09-19T02:44:42;16.73;;;9.00;;
65753;SDS011;69207;47.502;18.940;2023-09-19T02:45:45;12.37;;;8.82;;
65753;SDS011;69207;47.502;18.940;2023-09-19T02:46:59;19.70;;;9.48;;
65753;SDS011;69207;47.502;18.940;2023-09-19T02:48:03;11.05;;;7.97;;
65753;SDS011;69207;47.502;18.940;2023-09-19T02:49:06;17.50;;;9.05;;
65753;SDS011;69207;47.502;18.940;2023-09-19T02:50:10;16.02;;;8.88;;
65753;SDS011;69207;47.502;18.940;2023-09-19T02:51:14;14.48;;;8.45;;
65753;SDS011;69207;47.502;18.940;2023-09-19T02:52:17;20.48;;;9.45;;
65753;SDS011;69207;47.502;18.940;2023-09-19T02:53:20;15.02;;;9.02;;
65753;SDS011;69207;47.502;18.940;2023-09-19T02:54:24;14.25;;;9.50;;
65753;SDS011;69207;47.502;18.940;2023-09-19T02:55:27;12.93;;;9.20;;
65753;SDS011;69207;47.502;18.940;2023-09-19T02:56:31;13.55;;;9.40;;
65753;SDS011;69207;47.502;18.940;2023-09-19T02:57:35;18.15;;;9.30;;
65753;SDS011;69207;47.502;18.940;2023-09-19T02:58:43;14.85;;;8.77;;
65753;SDS011;69207;47.502;18.940;2023-09-19T02:59:46;15.15;;;9.25;;
65753;SDS011;69207;47.502;18.940;2023-09-19T03:00:50;17.90;;;9.27;;
65753;SDS011;69207;47.502;18.940;2023-09-19T03:01:54;16.87;;;9.23;;
65753;SDS011;69207;47.502;18.940;2023-09-19T03:02:57;15.13;;;8.57;;
65753;SDS011;69207;47.502;18.940;2023-09-19T03:04:02;15.90;;;9.23;;
65753;SDS011;69207;47.502;18.940;2023-09-19T03:05:11;18.92;;;9.38;;
65753;SDS011;69207;47.502;18.940;2023-09-19T03:06:14;16.12;;;9.45;;
65753;SDS011;69207;47.502;18.940;2023-09-19T03:07:18;15.70;;;9.18;;
65753;SDS011;69207;47.502;18.940;2023-09-19T03:08:21;16.90;;;9.68;;
65753;SDS011;69207;47.502;18.940;2023-09-19T03:09:24;13.98;;;8.88;;
65753;SDS011;69207;47.502;18.940;2023-09-19T03:10:27;14.90;;;9.05;;
65753;SDS011;69207;47.502;18.940;2023-09-19T03:11:32;15.80;;;9.15;;
65753;SDS011;69207;47.502;18.940;2023-09-19T03:12:35;21.12;;;8.65;;
65753;SDS011;69207;47.502;18.940;2023-09-19T03:13:39;21.35;;;9.30;;
65753;SDS011;69207;47.502;18.940;2023-09-19T03:14:43;14.35;;;9.43;;
65753;SDS011;69207;47.502;18.940;2023-09-19T03:15:46;12.32;;;8.65;;
65753;SDS011;69207;47.502;18.940;2023-09-19T03:16:52;17.87;;;9.57;;
65753;SDS011;69207;47.502;18.940;2023-09-19T03:17:55;17.08;;;9.27;;
65753;SDS011;69207;47.502;18.940;2023-09-19T03:18:58;20.15;;;9.45;;
65753;SDS011;69207;47.502;18.940;2023-09-19T03:20:02;17.27;;;8.73;;
65753;SDS011;69207;47.502;18.940;2023-09-19T03:21:12;13.57;;;8.55;;
65753;SDS011;69207;47.502;18.940;2023-09-19T03:22:15;15.98;;;9.55;;
65753;SDS011;69207;47.502;18.940;2023-09-19T03:23:20;15.10;;;8.90;;
65753;SDS011;69207;47.502;18.940;2023-09-19T03:24:23;12.20;;;8.38;;
65753;SDS011;69207;47.502;18.940;2023-09-19T03:25:26;18.27;;;9.07;;
65753;SDS011;69207;47.502;18.940;2023-09-19T03:26:31;14.35;;;9.13;;
65753;SDS011;69207;47.502;18.940;2023-09-19T03:27:36;15.13;;;9.57;;
65753;SDS011;69207;47.502;18.940;2023-09-19T03:28:39;13.95;;;9.05;;
65753;SDS011;69207;47.502;18.940;2023-09-19T03:29:43;13.18;;;8.50;;
65753;SDS011;69207;47.502;18.940;2023-09-19T03:30:46;14.85;;;8.98;;
65753;SDS011;69207;47.502;18.940;2023-09-19T03:32:01;12.75;;;8.63;;
65753;SDS011;69207;47.502;18.940;2023-09-19T03:33:04;15.18;;;9.18;;
65753;SDS011;69207;47.502;18.940;2023-09-19T03:34:09;19.83;;;9.18;;
65753;SDS011;69207;47.502;18.940;2023-09-19T03:35:12;13.57;;;7.97;;
65753;SDS011;69207;47.502;18.940;2023-09-19T03:36:17;15.40;;;8.57;;
65753;SDS011;69207;47.502;18.940;2023-09-19T03:37:20;18.70;;;8.40;;
65753;SDS011;69207;47.502;18.940;2023-09-19T03:38:23;17.10;;;8.52;;
65753;SDS011;69207;47.502;18.940;2023-09-19T03:39:26;16.98;;;8.63;;
65753;SDS011;69207;47.502;18.940;2023-09-19T03:40:30;13.02;;;7.57;;
65753;SDS011;69207;47.502;18.940;2023-09-19T03:41:33;13.45;;;7.95;;
65753;SDS011;69207;47.502;18.940;2023-09-19T03:42:39;14.57;;;7.93;;
65753;SDS011;69207;47.502;18.940;2023-09-19T03:43:43;16.45;;;8.20;;
65753;SDS011;69207;47.502;18.940;2023-09-19T03:44:46;17.02;;;8.23;;
65753;SDS011;69207;47.502;18.940;2023-09-19T03:45:49;12.75;;;8.10;;
65753;SDS011;69207;47.502;18.940;2023-09-19T03:46:53;16.40;;;7.85;;
65753;SDS011;69207;47.502;18.940;2023-09-19T03:47:58;14.65;;;7.57;;
65753;SDS011;69207;47.502;18.940;2023-09-19T03:49:02;12.70;;;8.30;;
65753;SDS011;69207;47.502;18.940;2023-09-19T03:50:06;12.52;;;7.72;;
65753;SDS011;69207;47.502;18.940;2023-09-19T03:51:17;12.73;;;8.45;;
65753;SDS011;69207;47.502;18.940;2023-09-19T03:52:20;16.25;;;7.72;;
65753;SDS011;69207;47.502;18.940;2023-09-19T03:53:24;14.90;;;8.15;;
65753;SDS011;69207;47.502;18.940;2023-09-19T03:54:27;12.85;;;8.50;;
65753;SDS011;69207;47.502;18.940;2023-09-19T03:55:30;14.93;;;8.38;;
65753;SDS011;69207;47.502;18.940;2023-09-19T03:56:33;15.55;;;7.45;;
65753;SDS011;69207;47.502;18.940;2023-09-19T03:57:36;13.52;;;8.43;;
65753;SDS011;69207;47.502;18.940;2023-09-19T03:58:39;13.52;;;7.80;;
65753;SDS011;69207;47.502;18.940;2023-09-19T03:59:43;17.83;;;8.88;;
65753;SDS011;69207;47.502;18.940;2023-09-19T04:00:45;12.68;;;7.25;;
65753;SDS011;69207;47.502;18.940;2023-09-19T04:01:49;14.35;;;6.70;;
65753;SDS011;69207;47.502;18.940;2023-09-19T04:02:53;9.90;;;6.32;;
65753;SDS011;69207;47.502;18.940;2023-09-19T04:03:58;24.75;;;9.40;;
65753;SDS011;69207;47.502;18.940;2023-09-19T04:05:10;26.67;;;10.00;;
65753;SDS011;69207;47.502;18.940;2023-09-19T04:06:14;36.15;;;15.30;;
65753;SDS011;69207;47.502;18.940;2023-09-19T04:07:17;33.80;;;15.93;;
65753;SDS011;69207;47.502;18.940;2023-09-19T04:08:25;26.05;;;10.30;;
65753;SDS011;69207;47.502;18.940;2023-09-19T04:09:28;16.92;;;7.85;;
65753;SDS011;69207;47.502;18.940;2023-09-19T04:10:31;24.60;;;9.50;;
65753;SDS011;69207;47.502;18.940;2023-09-19T04:11:34;13.38;;;6.93;;
65753;SDS011;69207;47.502;18.940;2023-09-19T04:12:37;15.25;;;6.93;;
65753;SDS011;69207;47.502;18.940;2023-09-19T04:13:41;11.30;;;6.62;;
65753;SDS011;69207;47.502;18.940;2023-09-19T04:14:44;10.02;;;5.87;;
65753;SDS011;69207;47.502;18.940;2023-09-19T04:15:48;10.55;;;5.55;;
65753;SDS011;69207;47.502;18.940;2023-09-19T04:16:51;11.32;;;5.87;;
65753;SDS011;69207;47.502;18.940;2023-09-19T04:17:55;8.98;;;6.12;;
65753;SDS011;69207;47.502;18.940;2023-09-19T04:18:58;15.20;;;6.35;;
65753;SDS011;69207;47.502;18.940;2023-09-19T04:20:01;11.20;;;5.60;;
65753;SDS011;69207;47.502;18.940;2023-09-19T04:21:07;12.20;;;5.85;;
65753;SDS011;69207;47.502;18.940;2023-09-19T04:22:11;14.68;;;5.45;;
65753;SDS011;69207;47.502;18.940;2023-09-19T04:23:16;14.35;;;6.20;;
65753;SDS011;69207;47.502;18.940;2023-09-19T04:24:19;12.80;;;6.20;;
65753;SDS011;69207;47.502;18.940;2023-09-19T04:25:22;9.05;;;5.55;;
65753;SDS011;69207;47.502;18.940;2023-09-19T04:26:25;8.57;;;4.40;;
65753;SDS011;69207;47.502;18.940;2023-09-19T04:27:29;8.60;;;4.95;;
65753;SDS011;69207;47.502;18.940;2023-09-19T04:28:32;9.98;;;5.12;;
65753;SDS011;69207;47.502;18.940;2023-09-19T04:29:36;7.00;;;4.40;;
65753;SDS011;69207;47.502;18.940;2023-09-19T04:30:40;12.48;;;4.87;;
65753;SDS011;69207;47.502;18.940;2023-09-19T04:31:43;10.23;;;4.82;;
65753;SDS011;69207;47.502;18.940;2023-09-19T04:32:48;8.40;;;3.55;;
65753;SDS011;69207;47.502;18.940;2023-09-19T04:33:54;8.60;;;3.95;;
65753;SDS011;69207;47.502;18.940;2023-09-19T04:34:57;7.43;;;3.80;;
65753;SDS011;69207;47.502;18.940;2023-09-19T04:36:03;10.32;;;4.75;;
65753;SDS011;69207;47.502;18.940;2023-09-19T04:37:28;9.25;;;3.58;;
65753;SDS011;69207;47.502;18.940;2023-09-19T04:38:31;5.25;;;3.00;;
65753;SDS011;69207;47.502;18.940;2023-09-19T04:39:34;4.45;;;2.60;;
65753;SDS011;69207;47.502;18.940;2023-09-19T04:40:37;4.95;;;2.53;;
65753;SDS011;69207;47.502;18.940;2023-09-19T04:41:42;4.60;;;2.53;;
65753;SDS011;69207;47.502;18.940;2023-09-19T04:42:54;2.92;;;2.10;;
65753;SDS011;69207;47.502;18.940;2023-09-19T04:44:00;3.78;;;2.17;;
65753;SDS011;69207;47.502;18.940;2023-09-19T04:45:03;6.43;;;1.92;;
65753;SDS011;69207;47.502;18.940;2023-09-19T04:46:07;9.90;;;1.83;;
65753;SDS011;69207;47.502;18.940;2023-09-19T04:47:11;3.72;;;1.52;;
65753;SDS011;69207;47.502;18.940;2023-09-19T04:48:15;2.78;;;1.30;;
65753;SDS011;69207;47.502;18.940;2023-09-19T04:49:18;3.17;;;1.27;;
65753;SDS011;69207;47.502;18.940;2023-09-19T04:50:22;3.10;;;1.35;;
65753;SDS011;69207;47.502;18.940;2023-09-19T04:51:26;5.82;;;1.40;;
65753;SDS011;69207;47.502;18.940;2023-09-19T04:52:32;1.48;;;1.08;;
65753;SDS011;69207;47.502;18.940;2023-09-19T04:53:35;2.80;;;1.27;;
65753;SDS011;69207;47.502;18.940;2023-09-19T04:54:39;1.70;;;1.08;;
65753;SDS011;69207;47.502;18.940;2023-09-19T04:55:43;2.03;;;1.08;;
65753;SDS011;69207;47.502;18.940;2023-09-19T04:56:46;2.97;;;0.90;;
65753;SDS011;69207;47.502;18.940;2023-09-19T04:57:50;2.05;;;1.00;;
65753;SDS011;69207;47.502;18.940;2023-09-19T04:58:53;1.20;;;1.10;;
65753;SDS011;69207;47.502;18.940;2023-09-19T04:59:57;3.12;;;0.88;;
65753;SDS011;69207;47.502;18.940;2023-09-19T05:01:00;3.47;;;1.00;;
65753;SDS011;69207;47.502;18.940;2023-09-19T05:02:04;2.00;;;1.10;;
65753;SDS011;69207;47.502;18.940;2023-09-19T05:03:08;3.58;;;1.20;;
65753;SDS011;69207;47.502;18.940;2023-09-19T05:04:11;1.48;;;1.10;;
65753;SDS011;69207;47.502;18.940;2023-09-19T05:05:14;2.78;;;1.00;;
65753;SDS011;69207;47.502;18.940;2023-09-19T05:06:20;2.85;;;0.90;;
65753;SDS011;69207;47.502;18.940;2023-09-19T05:07:26;1.35;;;0.75;;
65753;SDS011;69207;47.502;18.940;2023-09-19T05:08:29;2.33;;;0.70;;
65753;SDS011;69207;47.502;18.940;2023-09-19T05:09:32;1.75;;;0.70;;
65753;SDS011;69207;47.502;18.940;2023-09-19T05:10:37;1.27;;;0.80;;
65753;SDS011;69207;47.502;18.940;2023-09-19T05:11:40;1.30;;;0.70;;
65753;SDS011;69207;47.502;18.940;2023-09-19T05:12:44;3.15;;;0.70;;
65753;SDS011;69207;47.502;18.940;2023-09-19T05:13:51;0.85;;;0.70;;
65753;SDS011;69207;47.502;18.940;2023-09-19T05:14:55;1.40;;;0.60;;
65753;SDS011;69207;47.502;18.940;2023-09-19T05:16:01;0.80;;;0.80;;
65753;SDS011;69207;47.502;18.940;2023-09-19T05:17:05;1.73;;;0.70;;
65753;SDS011;69207;47.502;18.940;2023-09-19T05:18:08;3.20;;;0.70;;
65753;SDS011;69207;47.502;18.940;2023-09-19T05:19:11;2.75;;;0.60;;
65753;SDS011;69207;47.502;18.940;2023-09-19T05:20:14;2.03;;;0.70;;
65753;SDS011;69207;47.502;18.940;2023-09-19T05:21:27;2.90;;;0.70;;
65753;SDS011;69207;47.502;18.940;2023-09-19T05:22:33;1.30;;;0.60;;
65753;SDS011;69207;47.502;18.940;2023-09-19T05:23:37;1.92;;;0.80;;
65753;SDS011;69207;47.502;18.940;2023-09-19T05:24:40;5.75;;;1.00;;
65753;SDS011;69207;47.502;18.940;2023-09-19T05:25:43;2.28;;;0.82;;
65753;SDS011;69207;47.502;18.940;2023-09-19T05:26:47;6.25;;;0.80;;
65753;SDS011;69207;47.502;18.940;2023-09-19T05:27:52;1.73;;;0.60;;
65753;SDS011;69207;47.502;18.940;2023-09-19T05:28:56;1.95;;;0.60;;
65753;SDS011;69207;47.502;18.940;2023-09-19T05:29:59;1.65;;;0.70;;
65753;SDS011;69207;47.502;18.940;2023-09-19T05:31:02;0.85;;;0.60;;
65753;SDS011;69207;47.502;18.940;2023-09-19T05:32:05;3.50;;;0.60;;
65753;SDS011;69207;47.502;18.940;2023-09-19T05:33:09;2.62;;;0.52;;
65753;SDS011;69207;47.502;18.940;2023-09-19T05:34:12;0.90;;;0.60;;
65753;SDS011;69207;47.502;18.940;2023-09-19T05:35:15;1.37;;;0.80;;
65753;SDS011;69207;47.502;18.940;2023-09-19T05:36:18;0.60;;;0.60;;
65753;SDS011;69207;47.502;18.940;2023-09-19T05:37:22;0.98;;;0.65;;
65753;SDS011;69207;47.502;18.940;2023-09-19T05:38:26;5.05;;;0.77;;
65753;SDS011;69207;47.502;18.940;2023-09-19T05:39:30;2.28;;;0.70;;
65753;SDS011;69207;47.502;18.940;2023-09-19T05:40:33;2.17;;;0.70;;
65753;SDS011;69207;47.502;18.940;2023-09-19T05:41:37;1.50;;;0.77;;
65753;SDS011;69207;47.502;18.940;2023-09-19T05:42:42;4.05;;;0.60;;
65753;SDS011;69207;47.502;18.940;2023-09-19T05:43:48;2.22;;;0.82;;
65753;SDS011;69207;47.502;18.940;2023-09-19T05:44:52;0.80;;;0.77;;
65753;SDS011;69207;47.502;18.940;2023-09-19T05:45:56;1.50;;;0.80;;
65753;SDS011;69207;47.502;18.940;2023-09-19T05:46:59;1.70;;;0.80;;
65753;SDS011;69207;47.502;18.940;2023-09-19T05:48:08;2.15;;;0.70;;
65753;SDS011;69207;47.502;18.940;2023-09-19T05:49:14;1.83;;;0.70;;
65753;SDS011;69207;47.502;18.940;2023-09-19T05:50:18;3.60;;;0.60;;
65753;SDS011;69207;47.502;18.940;2023-09-19T05:51:22;1.95;;;0.73;;
65753;SDS011;69207;47.502;18.940;2023-09-19T05:52:26;1.83;;;0.60;;
65753;SDS011;69207;47.502;18.940;2023-09-19T05:53:29;6.43;;;0.80;;
65753;SDS011;69207;47.502;18.940;2023-09-19T05:54:32;2.30;;;1.05;;
65753;SDS011;69207;47.502;18.940;2023-09-19T05:55:36;2.37;;;0.60;;
65753;SDS011;69207;47.502;18.940;2023-09-19T05:56:40;2.25;;;0.70;;
65753;SDS011;69207;47.502;18.940;2023-09-19T05:57:49;2.65;;;0.65;;
65753;SDS011;69207;47.502;18.940;2023-09-19T05:58:54;1.58;;;0.80;;
65753;SDS011;69207;47.502;18.940;2023-09-19T05:59:57;1.80;;;0.68;;
65753;SDS011;69207;47.502;18.940;2023-09-19T06:01:01;0.98;;;0.88;;
65753;SDS011;69207;47.502;18.940;2023-09-19T06:02:04;3.28;;;0.80;;
65753;SDS011;69207;47.502;18.940;2023-09-19T06:03:08;2.42;;;0.80;;
65753;SDS011;69207;47.502;18.940;2023-09-19T06:04:12;3.60;;;0.75;;
65753;SDS011;69207;47.502;18.940;2023-09-19T06:05:15;1.90;;;0.90;;
65753;SDS011;69207;47.502;18.940;2023-09-19T06:06:19;1.35;;;0.70;;
65753;SDS011;69207;47.502;18.940;2023-09-19T06:07:22;1.77;;;0.70;;
65753;SDS011;69207;47.502;18.940;2023-09-19T06:08:28;4.75;;;0.80;;
65753;SDS011;69207;47.502;18.940;2023-09-19T06:09:31;1.62;;;0.85;;
65753;SDS011;69207;47.502;18.940;2023-09-19T06:10:34;3.05;;;0.70;;
65753;SDS011;69207;47.502;18.940;2023-09-19T06:11:38;1.17;;;0.75;;
65753;SDS011;69207;47.502;18.940;2023-09-19T06:12:41;2.45;;;0.93;;
65753;SDS011;69207;47.502;18.940;2023-09-19T06:13:47;1.60;;;0.60;;
65753;SDS011;69207;47.502;18.940;2023-09-19T06:14:50;1.10;;;0.70;;
65753;SDS011;69207;47.502;18.940;2023-09-19T06:15:55;0.70;;;0.70;;
65753;SDS011;69207;47.502;18.940;2023-09-19T06:17:02;1.15;;;0.50;;
65753;SDS011;69207;47.502;18.940;2023-09-19T06:18:05;0.77;;;0.70;;
65753;SDS011;69207;47.502;18.940;2023-09-19T06:19:16;1.67;;;0.82;;
65753;SDS011;69207;47.502;18.940;2023-09-19T06:20:19;2.03;;;0.82;;
65753;SDS011;69207;47.502;18.940;2023-09-19T06:21:22;1.65;;;0.70;;
65753;SDS011;69207;47.502;18.940;2023-09-19T06:22:26;0.77;;;0.68;;
65753;SDS011;69207;47.502;18.940;2023-09-19T06:23:29;1.77;;;0.70;;
65753;SDS011;69207;47.502;18.940;2023-09-19T06:24:31;0.70;;;0.70;;
65753;SDS011;69207;47.502;18.940;2023-09-19T06:25:34;2.08;;;0.65;;
65753;SDS011;69207;47.502;18.940;2023-09-19T06:26:37;2.85;;;0.70;;
65753;SDS011;69207;47.502;18.940;2023-09-19T06:27:40;0.95;;;0.73;;
65753;SDS011;69207;47.502;18.940;2023-09-19T06:28:46;0.82;;;0.70;;
65753;SDS011;69207;47.502;18.940;2023-09-19T06:29:49;0.77;;;0.60;;
65753;SDS011;69207;47.502;18.940;2023-09-19T06:30:52;0.85;;;0.85;;
65753;SDS011;69207;47.502;18.940;2023-09-19T06:31:55;1.17;;;0.60;;
65753;SDS011;69207;47.502;18.940;2023-09-19T06:32:59;3.30;;;0.93;;
65753;SDS011;69207;47.502;18.940;2023-09-19T06:34:03;1.37;;;0.70;;
65753;SDS011;69207;47.502;18.940;2023-09-19T06:35:06;1.37;;;0.70;;
65753;SDS011;69207;47.502;18.940;2023-09-19T06:36:11;1.23;;;0.90;;
65753;SDS011;69207;47.502;18.940;2023-09-19T06:37:14;1.80;;;0.73;;
65753;SDS011;69207;47.502;18.940;2023-09-19T06:38:17;1.70;;;0.90;;